createdAt,value
2018-12-15T00:00:47.198Z,1023.43
2018-12-15T00:01:57.156Z,1023.41
2018-12-15T00:03:07.084Z,1023.41
2018-12-15T00:04:17.015Z,1023.39
2018-12-15T00:05:26.708Z,1023.41
2018-12-15T00:06:36.659Z,1023.42
2018-12-15T00:07:46.363Z,1023.38
2018-12-15T00:08:56.291Z,1023.43
2018-12-15T00:10:06.220Z,1023.4
2018-12-15T00:11:16.185Z,1023.39
2018-12-15T00:12:25.867Z,1023.4
2018-12-15T00:13:35.799Z,1023.41
2018-12-15T00:14:45.486Z,1023.43
2018-12-15T00:15:55.417Z,1023.38
2018-12-15T00:17:05.765Z,1023.4
2018-12-15T00:18:15.819Z,1023.36
2018-12-15T00:19:25.507Z,1023.45
2018-12-15T00:20:35.447Z,1023.4
2018-12-15T00:21:45.436Z,1023.42
2018-12-15T00:22:55.125Z,1023.37
2018-12-15T00:24:04.805Z,1023.36
2018-12-15T00:25:14.764Z,1023.37
2018-12-15T00:26:24.697Z,1023.41
2018-12-15T00:27:34.144Z,1023.38
2018-12-15T00:28:43.825Z,1023.39
2018-12-15T00:29:53.509Z,1023.36
2018-12-15T00:31:03.207Z,1023.4
2018-12-15T00:32:12.644Z,1023.41
2018-12-15T00:33:22.590Z,1023.4
2018-12-15T00:34:32.533Z,1023.38
2018-12-15T00:35:42.465Z,1023.37
2018-12-15T00:36:51.649Z,1023.39
2018-12-15T00:38:01.609Z,1023.42
2018-12-15T00:39:11.033Z,1023.43
2018-12-15T00:40:20.979Z,1023.47
2018-12-15T00:41:30.662Z,1023.49
2018-12-15T00:42:40.349Z,1023.51
2018-12-15T00:43:50.035Z,1023.55
2018-12-15T00:44:59.982Z,1023.54
2018-12-15T00:46:09.913Z,1023.56
2018-12-15T00:47:19.859Z,1023.53
2018-12-15T00:48:29.280Z,1023.53
2018-12-15T00:49:38.730Z,1023.51
2018-12-15T00:50:48.407Z,1023.51
2018-12-15T00:51:58.329Z,1023.53
2018-12-15T00:53:08.007Z,1023.52
2018-12-15T00:54:17.930Z,1023.56
2018-12-15T00:55:27.631Z,1023.57
2018-12-15T00:56:37.323Z,1023.52
2018-12-15T00:57:47.255Z,1023.58
2018-12-15T00:58:57.179Z,1023.61
2018-12-15T01:00:07.101Z,1023.61
2018-12-15T01:01:17.102Z,1023.58
2018-12-15T01:02:26.796Z,1023.6
2018-12-15T01:03:36.729Z,1023.62
2018-12-15T01:04:46.665Z,1023.62
2018-12-15T01:05:56.362Z,1023.65
2018-12-15T01:07:06.044Z,1023.59
2018-12-15T01:08:15.756Z,1023.63
2018-12-15T01:09:25.457Z,1023.65
2018-12-15T01:10:34.883Z,1023.59
2018-12-15T01:11:44.820Z,1023.64
2018-12-15T01:12:54.525Z,1023.61
2018-12-15T01:14:04.461Z,1023.63
2018-12-15T01:15:14.397Z,1023.61
2018-12-15T01:16:24.343Z,1023.56
2018-12-15T01:17:34.279Z,1023.61
2018-12-15T01:18:44.221Z,1023.62
2018-12-15T01:19:53.424Z,1023.58
2018-12-15T01:21:03.351Z,1023.59
2018-12-15T01:22:12.789Z,1023.63
2018-12-15T01:23:22.473Z,1023.6
2018-12-15T01:24:31.911Z,1023.61
2018-12-15T01:25:41.865Z,1023.62
2018-12-15T01:26:51.547Z,1023.57
2018-12-15T01:28:00.986Z,1023.59
2018-12-15T01:29:10.682Z,1023.58
2018-12-15T01:30:20.350Z,1023.61
2018-12-15T01:31:30.298Z,1023.62
2018-12-15T01:32:40.268Z,1023.63
2018-12-15T01:33:49.948Z,1023.65
2018-12-15T01:34:59.386Z,1023.62
2018-12-15T01:36:09.066Z,1023.64
2018-12-15T01:37:18.750Z,1023.63
2018-12-15T01:38:28.687Z,1023.65
2018-12-15T01:39:38.610Z,1023.64
2018-12-15T01:40:48.315Z,1023.64
2018-12-15T01:41:57.999Z,1023.65
2018-12-15T01:43:07.994Z,1023.69
2018-12-15T01:44:17.927Z,1023.69
2018-12-15T01:45:27.629Z,1023.67
2018-12-15T01:46:37.306Z,1023.66
2018-12-15T01:47:46.987Z,1023.71
2018-12-15T01:48:56.937Z,1023.68
2018-12-15T01:50:06.631Z,1023.72
2018-12-15T01:51:16.060Z,1023.7
2018-12-15T01:52:25.742Z,1023.68
2018-12-15T01:53:35.691Z,1023.66
2018-12-15T01:54:45.139Z,1023.67
2018-12-15T01:55:55.068Z,1023.64
2018-12-15T01:57:04.745Z,1023.65
2018-12-15T01:58:14.668Z,1023.59
2018-12-15T01:59:24.349Z,1023.64
2018-12-15T02:00:33.536Z,1023.62
2018-12-15T02:01:43.222Z,1023.6
2018-12-15T02:02:53.177Z,1023.58
2018-12-15T02:04:03.120Z,1023.59
2018-12-15T02:05:13.044Z,1023.61
2018-12-15T02:06:22.986Z,1023.57
2018-12-15T02:07:32.433Z,1023.6
2018-12-15T02:08:42.375Z,1023.56
2018-12-15T02:09:52.315Z,1023.56
2018-12-15T02:11:02.016Z,1023.53
2018-12-15T02:12:11.958Z,1023.55
2018-12-15T02:13:21.663Z,1023.6
2018-12-15T02:14:31.099Z,1023.61
2018-12-15T02:15:41.026Z,1023.61
2018-12-15T02:16:50.959Z,1023.61
2018-12-15T02:18:00.901Z,1023.59
2018-12-15T02:19:10.373Z,1023.6
2018-12-15T02:20:20.302Z,1023.64
2018-12-15T02:21:29.982Z,1023.61
2018-12-15T02:22:39.934Z,1023.58
2018-12-15T02:23:49.875Z,1023.62
2018-12-15T02:24:59.806Z,1023.6
2018-12-15T02:26:09.493Z,1023.57
2018-12-15T02:27:19.431Z,1023.63
2018-12-15T02:28:29.128Z,1023.58
2018-12-15T02:29:39.069Z,1023.57
2018-12-15T02:30:49.066Z,1023.54
2018-12-15T02:31:58.506Z,1023.57
2018-12-15T02:33:08.199Z,1023.54
2018-12-15T02:34:18.127Z,1023.59
2018-12-15T02:35:28.060Z,1023.55
2018-12-15T02:36:38.017Z,1023.57
2018-12-15T02:37:47.958Z,1023.56
2018-12-15T02:38:57.904Z,1023.57
2018-12-15T02:40:07.844Z,1023.56
2018-12-15T02:41:17.516Z,1023.56
2018-12-15T02:42:27.475Z,1023.53
2018-12-15T02:43:36.904Z,1023.52
2018-12-15T02:44:46.841Z,1023.56
2018-12-15T02:45:56.520Z,1023.55
2018-12-15T02:47:06.455Z,1023.59
2018-12-15T02:48:16.394Z,1023.56
2018-12-15T02:49:26.340Z,1023.52
2018-12-15T02:50:36.280Z,1023.57
2018-12-15T02:51:46.007Z,1023.54
2018-12-15T02:52:55.688Z,1023.54
2018-12-15T02:54:05.618Z,1023.49
2018-12-15T02:55:15.563Z,1023.51
2018-12-15T02:56:25.237Z,1023.47
2018-12-15T02:57:35.188Z,1023.45
2018-12-15T02:58:45.118Z,1023.46
2018-12-15T02:59:55.097Z,1023.49
2018-12-15T03:01:04.772Z,1023.5
2018-12-15T03:02:14.457Z,1023.48
2018-12-15T03:03:24.148Z,1023.5
2018-12-15T03:04:33.830Z,1023.51
2018-12-15T03:05:43.508Z,1023.55
2018-12-15T03:06:53.465Z,1023.54
2018-12-15T03:08:03.418Z,1023.6
2018-12-15T03:09:12.849Z,1023.6
2018-12-15T03:10:22.807Z,1023.56
2018-12-15T03:11:32.506Z,1023.56
2018-12-15T03:12:42.467Z,1023.55
2018-12-15T03:13:51.907Z,1023.55
2018-12-15T03:15:01.599Z,1023.56
2018-12-15T03:16:11.531Z,1023.59
2018-12-15T03:17:21.461Z,1023.58
2018-12-15T03:18:31.145Z,1023.59
2018-12-15T03:19:41.091Z,1023.57
2018-12-15T03:20:50.546Z,1023.61
2018-12-15T03:22:00.217Z,1023.62
2018-12-15T03:23:10.155Z,1023.62
2018-12-15T03:24:20.116Z,1023.62
2018-12-15T03:25:29.552Z,1023.65
2018-12-15T03:26:39.483Z,1023.61
2018-12-15T03:27:49.413Z,1023.62
2018-12-15T03:28:59.353Z,1023.62
2018-12-15T03:30:09.064Z,1023.66
2018-12-15T03:31:19.045Z,1023.63
2018-12-15T03:32:28.990Z,1023.62
2018-12-15T03:33:39.084Z,1023.69
2018-12-15T03:34:49.024Z,1023.68
2018-12-15T03:35:58.702Z,1023.69
2018-12-15T03:37:08.148Z,1023.67
2018-12-15T03:38:18.090Z,1023.71
2018-12-15T03:39:27.776Z,1023.66
2018-12-15T03:40:37.472Z,1023.68
2018-12-15T03:41:47.172Z,1023.66
2018-12-15T03:42:56.862Z,1023.64
2018-12-15T03:44:06.815Z,1023.6
2018-12-15T03:45:16.518Z,1023.63
2018-12-15T03:46:26.195Z,1023.64
2018-12-15T03:47:36.126Z,1023.65
2018-12-15T03:48:46.173Z,1023.6
2018-12-15T03:49:56.109Z,1023.62
2018-12-15T03:51:06.060Z,1023.66
2018-12-15T03:52:16.014Z,1023.63
2018-12-15T03:53:25.949Z,1023.66
2018-12-15T03:54:35.887Z,1023.64
2018-12-15T03:55:45.834Z,1023.68
2018-12-15T03:56:55.773Z,1023.71
2018-12-15T03:58:05.718Z,1023.69
2018-12-15T03:59:15.398Z,1023.7
2018-12-15T04:00:25.341Z,1023.74
2018-12-15T04:01:35.026Z,1023.7
2018-12-15T04:02:45.064Z,1023.67
2018-12-15T04:03:55.015Z,1023.72
2018-12-15T04:05:04.960Z,1023.7
2018-12-15T04:06:14.924Z,1023.74
2018-12-15T04:07:24.607Z,1023.72
2018-12-15T04:08:34.571Z,1023.69
2018-12-15T04:09:44.578Z,1023.66
2018-12-15T04:10:54.499Z,1023.68
2018-12-15T04:12:03.439Z,1023.67
2018-12-15T04:13:13.410Z,1023.67
2018-12-15T04:14:23.369Z,1023.69
2018-12-15T04:15:33.313Z,1023.66
2018-12-15T04:16:43.259Z,1023.64
2018-12-15T04:17:53.208Z,1023.62
2018-12-15T04:19:09.019Z,1023.68
2018-12-15T04:20:18.710Z,1023.61
2018-12-15T04:21:28.640Z,1023.63
2018-12-15T04:22:38.326Z,1023.63
2018-12-15T04:23:48.024Z,1023.66
2018-12-15T04:24:57.709Z,1023.62
2018-12-15T04:26:07.143Z,1023.61
2018-12-15T04:27:17.082Z,1023.63
2018-12-15T04:28:27.018Z,1023.63
2018-12-15T04:29:36.448Z,1023.62
2018-12-15T04:30:46.357Z,1023.61
2018-12-15T04:31:55.557Z,1023.66
2018-12-15T04:33:05.241Z,1023.65
2018-12-15T04:34:15.178Z,1023.64
2018-12-15T04:35:25.112Z,1023.64
2018-12-15T04:36:34.570Z,1023.67
2018-12-15T04:37:44.257Z,1023.68
2018-12-15T04:38:54.175Z,1023.65
2018-12-15T04:40:04.124Z,1023.63
2018-12-15T04:41:13.793Z,1023.63
2018-12-15T04:42:23.749Z,1023.66
2018-12-15T04:43:33.692Z,1023.65
2018-12-15T04:44:43.396Z,1023.62
2018-12-15T04:45:53.343Z,1023.65
2018-12-15T04:47:03.297Z,1023.69
2018-12-15T04:48:13.246Z,1023.66
2018-12-15T04:49:23.186Z,1023.68
2018-12-15T04:50:33.124Z,1023.68
2018-12-15T04:51:43.058Z,1023.67
2018-12-15T04:52:52.776Z,1023.69
2018-12-15T04:54:02.468Z,1023.67
2018-12-15T04:55:12.414Z,1023.69
2018-12-15T04:56:22.360Z,1023.68
2018-12-15T04:57:32.325Z,1023.75
2018-12-15T04:58:41.997Z,1023.73
2018-12-15T04:59:51.686Z,1023.7
2018-12-15T05:01:01.679Z,1023.74
2018-12-15T05:02:11.629Z,1023.76
2018-12-15T05:03:22.862Z,1023.73
2018-12-15T05:04:32.653Z,1023.73
2018-12-15T05:05:42.604Z,1023.71
2018-12-15T05:06:52.553Z,1023.74
2018-12-15T05:08:02.501Z,1023.77
2018-12-15T05:09:11.954Z,1023.69
2018-12-15T05:10:21.899Z,1023.75
2018-12-15T05:11:31.594Z,1023.77
2018-12-15T05:12:41.296Z,1023.77
2018-12-15T05:13:51.255Z,1023.77
2018-12-15T05:15:01.188Z,1023.74
2018-12-15T05:16:10.867Z,1023.78
2018-12-15T05:17:20.805Z,1023.72
2018-12-15T05:18:30.243Z,1023.73
2018-12-15T05:19:40.178Z,1023.75
2018-12-15T05:20:50.123Z,1023.72
2018-12-15T05:21:59.315Z,1023.73
2018-12-15T05:23:09.260Z,1023.74
2018-12-15T05:24:19.222Z,1023.75
2018-12-15T05:25:28.974Z,1023.72
2018-12-15T05:26:38.409Z,1023.77
2018-12-15T05:27:48.337Z,1023.74
2018-12-15T05:28:58.274Z,1023.73
2018-12-15T05:30:07.720Z,1023.74
2018-12-15T05:31:17.671Z,1023.76
2018-12-15T05:32:27.608Z,1023.7
2018-12-15T05:33:37.543Z,1023.77
2018-12-15T05:34:47.226Z,1023.73
2018-12-15T05:35:56.927Z,1023.72
2018-12-15T05:37:06.878Z,1023.76
2018-12-15T05:38:16.819Z,1023.77
2018-12-15T05:39:26.759Z,1023.76
2018-12-15T05:40:36.438Z,1023.76
2018-12-15T05:41:46.412Z,1023.73
2018-12-15T05:42:55.841Z,1023.74
2018-12-15T05:44:05.526Z,1023.75
2018-12-15T05:45:15.473Z,1023.78
2018-12-15T05:46:25.416Z,1023.76
2018-12-15T05:47:34.617Z,1023.77
2018-12-15T05:48:44.589Z,1023.8
2018-12-15T05:49:54.531Z,1023.77
2018-12-15T05:51:04.470Z,1023.79
2018-12-15T05:52:14.151Z,1023.79
2018-12-15T05:53:24.086Z,1023.74
2018-12-15T05:54:33.783Z,1023.77
2018-12-15T05:55:43.473Z,1023.73
2018-12-15T05:56:53.411Z,1023.78
2018-12-15T05:58:03.106Z,1023.78
2018-12-15T05:59:12.788Z,1023.79
2018-12-15T06:00:22.484Z,1023.78
2018-12-15T06:01:32.427Z,1023.73
2018-12-15T06:02:42.159Z,1023.76
2018-12-15T06:03:52.102Z,1023.79
2018-12-15T06:05:02.025Z,1023.77
2018-12-15T06:06:11.699Z,1023.74
2018-12-15T06:07:21.395Z,1023.79
2018-12-15T06:08:30.835Z,1023.8
2018-12-15T06:09:40.589Z,1023.78
2018-12-15T06:10:50.278Z,1023.77
2018-12-15T06:11:59.475Z,1023.75
2018-12-15T06:13:09.397Z,1023.82
2018-12-15T06:14:19.326Z,1023.78
2018-12-15T06:15:29.264Z,1023.74
2018-12-15T06:16:38.939Z,1023.8
2018-12-15T06:17:48.662Z,1023.81
2018-12-15T06:18:58.602Z,1023.8
2018-12-15T06:20:08.545Z,1023.8
2018-12-15T06:21:18.478Z,1023.86
2018-12-15T06:22:27.906Z,1023.85
2018-12-15T06:23:37.849Z,1023.87
2018-12-15T06:24:47.779Z,1023.9
2018-12-15T06:25:57.724Z,1023.86
2018-12-15T06:27:07.662Z,1023.89
2018-12-15T06:28:17.619Z,1023.91
2018-12-15T06:29:27.313Z,1023.88
2018-12-15T06:30:36.989Z,1023.9
2018-12-15T06:31:46.676Z,1023.84
2018-12-15T06:32:56.362Z,1023.9
2018-12-15T06:34:06.301Z,1023.85
2018-12-15T06:35:15.975Z,1023.88
2018-12-15T06:36:25.903Z,1023.94
2018-12-15T06:37:35.580Z,1023.94
2018-12-15T06:38:45.269Z,1023.93
2018-12-15T06:39:55.202Z,1023.99
2018-12-15T06:41:04.909Z,1023.98
2018-12-15T06:42:14.861Z,1023.98
2018-12-15T06:43:24.797Z,1024
2018-12-15T06:44:34.481Z,1024.01
2018-12-15T06:45:44.422Z,1023.98
2018-12-15T06:46:53.859Z,1024
2018-12-15T06:48:03.805Z,1024
2018-12-15T06:49:13.725Z,1023.99
2018-12-15T06:50:23.653Z,1024.04
2018-12-15T06:51:33.331Z,1024.05
2018-12-15T06:52:43.023Z,1024.03
2018-12-15T06:53:52.222Z,1024.1
2018-12-15T06:55:02.221Z,1024.06
2018-12-15T06:56:11.897Z,1024.04
2018-12-15T06:57:21.825Z,1024.15
2018-12-15T06:58:31.749Z,1024.1
2018-12-15T06:59:41.194Z,1024.14
2018-12-15T07:00:50.880Z,1024.1
2018-12-15T07:02:00.813Z,1024.14
2018-12-15T07:03:10.777Z,1024.12
2018-12-15T07:04:20.445Z,1024.12
2018-12-15T07:05:30.387Z,1024.12
2018-12-15T07:06:40.068Z,1024.13
2018-12-15T07:07:49.763Z,1024.13
2018-12-15T07:08:59.454Z,1024.12
2018-12-15T07:10:09.403Z,1024.15
2018-12-15T07:11:18.877Z,1024.17
2018-12-15T07:12:28.816Z,1024.15
2018-12-15T07:13:39.381Z,1024.15
2018-12-15T07:14:48.817Z,1024.15
2018-12-15T07:15:58.758Z,1024.17
2018-12-15T07:17:08.772Z,1024.19
2018-12-15T07:18:18.764Z,1024.16
2018-12-15T07:19:27.961Z,1024.13
2018-12-15T07:20:37.904Z,1024.17
2018-12-15T07:21:47.616Z,1024.1
2018-12-15T07:22:57.564Z,1024.13
2018-12-15T07:24:07.013Z,1024.12
2018-12-15T07:25:16.942Z,1024.11
2018-12-15T07:26:26.889Z,1024.12
2018-12-15T07:27:36.566Z,1024.09
2018-12-15T07:28:46.256Z,1024.1
2018-12-15T07:29:55.958Z,1024.13
2018-12-15T07:31:05.674Z,1024.14
2018-12-15T07:32:15.610Z,1024.14
2018-12-15T07:33:25.292Z,1024.17
2018-12-15T07:34:35.228Z,1024.15
2018-12-15T07:35:44.919Z,1024.12
2018-12-15T07:36:54.352Z,1024.15
2018-12-15T07:38:04.057Z,1024.13
2018-12-15T07:39:13.996Z,1024.14
2018-12-15T07:40:23.675Z,1024.13
2018-12-15T07:41:33.606Z,1024.11
2018-12-15T07:42:43.305Z,1024.1
2018-12-15T07:43:53.236Z,1024.14
2018-12-15T07:45:03.179Z,1024.11
2018-12-15T07:46:13.114Z,1024.16
2018-12-15T07:47:22.564Z,1024.16
2018-12-15T07:48:32.502Z,1024.21
2018-12-15T07:49:42.458Z,1024.22
2018-12-15T07:50:52.144Z,1024.17
2018-12-15T07:52:02.097Z,1024.18
2018-12-15T07:53:12.032Z,1024.19
2018-12-15T07:54:21.986Z,1024.19
2018-12-15T07:55:31.926Z,1024.16
2018-12-15T07:56:41.605Z,1024.19
2018-12-15T07:57:51.550Z,1024.18
2018-12-15T07:59:01.494Z,1024.21
2018-12-15T08:00:11.182Z,1024.18
2018-12-15T08:01:20.922Z,1024.22
2018-12-15T08:02:30.605Z,1024.2
2018-12-15T08:03:40.292Z,1024.21
2018-12-15T08:04:49.970Z,1024.19
2018-12-15T08:05:59.922Z,1024.26
2018-12-15T08:07:09.869Z,1024.25
2018-12-15T08:08:19.803Z,1024.25
2018-12-15T08:09:29.488Z,1024.27
2018-12-15T08:10:39.166Z,1024.28
2018-12-15T08:11:49.103Z,1024.26
2018-12-15T08:12:59.033Z,1024.27
2018-12-15T08:14:08.995Z,1024.24
2018-12-15T08:15:18.709Z,1024.25
2018-12-15T08:16:28.410Z,1024.25
2018-12-15T08:17:38.401Z,1024.25
2018-12-15T08:18:47.837Z,1024.28
2018-12-15T08:20:03.302Z,1024.29
2018-12-15T08:21:12.988Z,1024.28
2018-12-15T08:22:26.019Z,1024.33
2018-12-15T08:23:35.987Z,1024.31
2018-12-15T08:24:45.912Z,1024.29
2018-12-15T08:25:55.850Z,1024.29
2018-12-15T08:27:05.539Z,1024.28
2018-12-15T08:28:15.488Z,1024.3
2018-12-15T08:29:25.508Z,1024.3
2018-12-15T08:30:35.217Z,1024.34
2018-12-15T08:31:45.156Z,1024.31
2018-12-15T08:32:55.177Z,1024.3
2018-12-15T08:34:05.121Z,1024.33
2018-12-15T08:35:15.047Z,1024.27
2018-12-15T08:36:24.988Z,1024.26
2018-12-15T08:37:34.945Z,1024.25
2018-12-15T08:38:44.893Z,1024.28
2018-12-15T08:39:54.572Z,1024.32
2018-12-15T08:41:04.021Z,1024.31
2018-12-15T08:42:13.969Z,1024.32
2018-12-15T08:43:23.916Z,1024.29
2018-12-15T08:44:33.624Z,1024.32
2018-12-15T08:45:43.312Z,1024.34
2018-12-15T08:46:53.268Z,1024.32
2018-12-15T08:48:03.206Z,1024.33
2018-12-15T08:49:13.152Z,1024.3
2018-12-15T08:50:22.661Z,1024.29
2018-12-15T08:51:32.345Z,1024.31
2018-12-15T08:52:43.033Z,1024.27
2018-12-15T08:53:52.727Z,1024.26
2018-12-15T08:55:02.671Z,1024.29
2018-12-15T08:56:12.118Z,1024.22
2018-12-15T08:57:22.040Z,1024.22
2018-12-15T08:58:31.484Z,1024.2
2018-12-15T08:59:41.432Z,1024.23
2018-12-15T09:00:51.127Z,1024.23
2018-12-15T09:02:00.816Z,1024.24
2018-12-15T09:03:10.513Z,1024.25
2018-12-15T09:04:20.215Z,1024.2
2018-12-15T09:05:30.155Z,1024.2
2018-12-15T09:06:39.856Z,1024.19
2018-12-15T09:07:49.798Z,1024.22
2018-12-15T09:08:59.736Z,1024.21
2018-12-15T09:10:09.660Z,1024.26
2018-12-15T09:11:19.345Z,1024.24
2018-12-15T09:12:28.781Z,1024.24
2018-12-15T09:13:38.736Z,1024.19
2018-12-15T09:14:48.159Z,1024.26
2018-12-15T09:15:58.110Z,1024.23
2018-12-15T09:17:07.798Z,1024.24
2018-12-15T09:18:17.743Z,1024.21
2018-12-15T09:19:27.680Z,1024.19
2018-12-15T09:20:37.371Z,1024.19
2018-12-15T09:21:47.056Z,1024.21
2018-12-15T09:22:56.735Z,1024.21
2018-12-15T09:24:06.677Z,1024.21
2018-12-15T09:25:16.381Z,1024.14
2018-12-15T09:26:26.063Z,1024.22
2018-12-15T09:27:35.753Z,1024.17
2018-12-15T09:28:45.451Z,1024.2
2018-12-15T09:29:55.383Z,1024.18
2018-12-15T09:31:05.087Z,1024.21
2018-12-15T09:32:15.034Z,1024.17
2018-12-15T09:33:24.465Z,1024.15
2018-12-15T09:34:33.900Z,1024.19
2018-12-15T09:35:43.878Z,1024.17
2018-12-15T09:36:54.066Z,1024.16
2018-12-15T09:38:04.061Z,1024.17
2018-12-15T09:39:13.747Z,1024.18
2018-12-15T09:40:23.687Z,1024.17
2018-12-15T09:41:33.445Z,1024.11
2018-12-15T09:42:43.394Z,1024.17
2018-12-15T09:43:53.145Z,1024.17
2018-12-15T09:45:02.620Z,1024.13
2018-12-15T09:46:12.586Z,1024.14
2018-12-15T09:47:22.526Z,1024.13
2018-12-15T09:48:32.207Z,1024.15
2018-12-15T09:49:41.649Z,1024.11
2018-12-15T09:50:51.088Z,1024.08
2018-12-15T09:52:00.542Z,1024.07
2018-12-15T09:53:10.486Z,1024.1
2018-12-15T09:54:20.424Z,1024.08
2018-12-15T09:55:30.120Z,1024.13
2018-12-15T09:56:39.584Z,1024.12
2018-12-15T09:57:49.541Z,1024.06
2018-12-15T09:58:59.487Z,1024.09
2018-12-15T10:00:09.428Z,1024.07
2018-12-15T10:01:19.363Z,1024.03
2018-12-15T10:02:29.038Z,1024.04
2018-12-15T10:03:38.471Z,1024.02
2018-12-15T10:04:48.406Z,1024.01
2018-12-15T10:05:58.083Z,1023.97
2018-12-15T10:07:07.782Z,1024.01
2018-12-15T10:08:17.752Z,1024.01
2018-12-15T10:09:27.191Z,1024.03
2018-12-15T10:10:37.134Z,1023.98
2018-12-15T10:11:47.073Z,1023.99
2018-12-15T10:12:56.785Z,1023.98
2018-12-15T10:14:06.465Z,1023.99
2018-12-15T10:15:16.150Z,1023.96
2018-12-15T10:16:26.123Z,1023.97
2018-12-15T10:17:35.816Z,1023.93
2018-12-15T10:18:45.769Z,1023.91
2018-12-15T10:19:55.708Z,1023.84
2018-12-15T10:21:05.655Z,1023.83
2018-12-15T10:22:15.344Z,1023.81
2018-12-15T10:23:25.290Z,1023.79
2018-12-15T10:24:35.227Z,1023.75
2018-12-15T10:25:44.906Z,1023.72
2018-12-15T10:26:54.840Z,1023.72
2018-12-15T10:28:04.276Z,1023.69
2018-12-15T10:29:14.223Z,1023.73
2018-12-15T10:30:24.140Z,1023.69
2018-12-15T10:31:34.092Z,1023.66
2018-12-15T10:32:44.025Z,1023.66
2018-12-15T10:33:53.968Z,1023.66
2018-12-15T10:35:03.993Z,1023.64
2018-12-15T10:36:13.429Z,1023.65
2018-12-15T10:37:23.117Z,1023.61
2018-12-15T10:38:33.065Z,1023.62
2018-12-15T10:39:43.003Z,1023.58
2018-12-15T10:40:52.695Z,1023.59
2018-12-15T10:42:02.646Z,1023.6
2018-12-15T10:43:12.584Z,1023.59
2018-12-15T10:44:22.525Z,1023.6
2018-12-15T10:45:31.952Z,1023.61
2018-12-15T10:46:41.653Z,1023.56
2018-12-15T10:47:51.590Z,1023.57
2018-12-15T10:49:01.288Z,1023.62
2018-12-15T10:50:11.226Z,1023.55
2018-12-15T10:51:21.166Z,1023.54
2018-12-15T10:52:30.603Z,1023.53
2018-12-15T10:53:40.360Z,1023.55
2018-12-15T10:54:50.122Z,1023.56
2018-12-15T10:55:59.560Z,1023.53
2018-12-15T10:57:09.494Z,1023.54
2018-12-15T10:58:19.441Z,1023.52
2018-12-15T10:59:28.866Z,1023.51
2018-12-15T11:00:38.323Z,1023.51
2018-12-15T11:01:48.258Z,1023.5
2018-12-15T11:02:58.020Z,1023.48
2018-12-15T11:04:07.958Z,1023.53
2018-12-15T11:05:17.644Z,1023.55
2018-12-15T11:06:27.585Z,1023.51
2018-12-15T11:07:37.031Z,1023.51
2018-12-15T11:08:46.735Z,1023.47
2018-12-15T11:09:56.183Z,1023.48
2018-12-15T11:11:06.182Z,1023.45
2018-12-15T11:12:16.105Z,1023.44
2018-12-15T11:13:25.284Z,1023.47
2018-12-15T11:14:35.269Z,1023.4
2018-12-15T11:15:44.968Z,1023.4
2018-12-15T11:16:54.901Z,1023.37
2018-12-15T11:18:04.821Z,1023.41
2018-12-15T11:19:14.525Z,1023.4
2018-12-15T11:20:24.218Z,1023.35
2018-12-15T11:21:33.919Z,1023.38
2018-12-15T11:22:43.852Z,1023.34
2018-12-15T11:23:53.795Z,1023.31
2018-12-15T11:25:03.482Z,1023.31
2018-12-15T11:26:12.911Z,1023.32
2018-12-15T11:27:22.592Z,1023.32
2018-12-15T11:28:32.528Z,1023.28
2018-12-15T11:29:42.233Z,1023.31
2018-12-15T11:30:52.186Z,1023.23
2018-12-15T11:32:02.118Z,1023.26
2018-12-15T11:33:11.800Z,1023.29
2018-12-15T11:34:21.737Z,1023.23
2018-12-15T11:35:31.670Z,1023.21
2018-12-15T11:36:41.380Z,1023.18
2018-12-15T11:37:51.064Z,1023.21
2018-12-15T11:39:00.741Z,1023.2
2018-12-15T11:40:10.673Z,1023.2
2018-12-15T11:41:20.365Z,1023.16
2018-12-15T11:42:30.343Z,1023.16
2018-12-15T11:43:40.259Z,1023.21
2018-12-15T11:44:50.190Z,1023.17
2018-12-15T11:46:00.136Z,1023.16
2018-12-15T11:47:10.074Z,1023.17
2018-12-15T11:48:19.761Z,1023.19
2018-12-15T11:49:29.702Z,1023.16
2018-12-15T11:50:44.226Z,1023.16
2018-12-15T11:51:53.924Z,1023.17
2018-12-15T11:53:03.859Z,1023.19
2018-12-15T11:54:13.825Z,1023.16
2018-12-15T11:55:23.795Z,1023.16
2018-12-15T11:56:33.798Z,1023.19
2018-12-15T11:57:43.490Z,1023.17
2018-12-15T11:58:53.180Z,1023.15
2018-12-15T12:00:03.122Z,1023.13
2018-12-15T12:01:13.062Z,1023.09
2018-12-15T12:02:23.001Z,1023.07
2018-12-15T12:03:39.384Z,1023.06
2018-12-15T12:04:49.076Z,1023.02
2018-12-15T12:05:58.519Z,1023.05
2018-12-15T12:07:08.258Z,1023.06
2018-12-15T12:08:17.759Z,1023.05
2018-12-15T12:09:27.683Z,1023.04
2018-12-15T12:10:37.619Z,1023.08
2018-12-15T12:11:47.554Z,1023.1
2018-12-15T12:12:57.244Z,1023.07
2018-12-15T12:14:06.942Z,1023.06
2018-12-15T12:15:16.389Z,1023.05
2018-12-15T12:16:26.342Z,1023.04
2018-12-15T12:17:36.265Z,1023.02
2018-12-15T12:18:46.210Z,1023
2018-12-15T12:19:55.932Z,1022.99
2018-12-15T12:21:05.377Z,1023.01
2018-12-15T12:22:15.335Z,1023
2018-12-15T12:23:25.282Z,1022.98
2018-12-15T12:24:34.975Z,1022.96
2018-12-15T12:25:44.921Z,1023
2018-12-15T12:26:55.164Z,1023
2018-12-15T12:28:05.114Z,1023
2018-12-15T12:29:15.054Z,1022.97
2018-12-15T12:30:24.746Z,1022.96
2018-12-15T12:31:34.683Z,1022.95
2018-12-15T12:32:44.617Z,1022.92
2018-12-15T12:33:54.327Z,1022.93
2018-12-15T12:35:04.277Z,1022.91
2018-12-15T12:36:14.229Z,1022.92
2018-12-15T12:37:24.185Z,1022.92
2018-12-15T12:38:34.130Z,1022.93
2018-12-15T12:39:44.063Z,1022.93
2018-12-15T12:40:54.004Z,1022.9
2018-12-15T12:42:03.962Z,1022.87
2018-12-15T12:43:13.655Z,1022.87
2018-12-15T12:44:23.613Z,1022.84
2018-12-15T12:45:33.301Z,1022.86
2018-12-15T12:46:43.224Z,1022.82
2018-12-15T12:47:52.938Z,1022.84
2018-12-15T12:49:02.883Z,1022.85
2018-12-15T12:50:12.335Z,1022.81
2018-12-15T12:51:22.292Z,1022.83
2018-12-15T12:52:31.975Z,1022.8
2018-12-15T12:53:41.932Z,1022.79
2018-12-15T12:54:51.369Z,1022.8
2018-12-15T12:56:01.319Z,1022.79
2018-12-15T12:57:11.267Z,1022.75
2018-12-15T12:58:21.205Z,1022.79
2018-12-15T12:59:30.892Z,1022.72
2018-12-15T13:00:40.576Z,1022.77
2018-12-15T13:01:50.276Z,1022.74
2018-12-15T13:02:59.963Z,1022.73
2018-12-15T13:04:09.654Z,1022.74
2018-12-15T13:05:19.588Z,1022.74
2018-12-15T13:06:29.526Z,1022.77
2018-12-15T13:07:39.227Z,1022.78
2018-12-15T13:08:49.190Z,1022.77
2018-12-15T13:09:59.138Z,1022.77
2018-12-15T13:11:08.831Z,1022.77
2018-12-15T13:12:18.795Z,1022.8
2018-12-15T13:13:28.740Z,1022.77
2018-12-15T13:14:39.197Z,1022.81
2018-12-15T13:15:48.380Z,1022.81
2018-12-15T13:16:58.072Z,1022.78
2018-12-15T13:18:08.017Z,1022.76
2018-12-15T13:19:17.972Z,1022.74
2018-12-15T13:20:27.674Z,1022.69
2018-12-15T13:21:37.379Z,1022.74
2018-12-15T13:22:47.340Z,1022.72
2018-12-15T13:23:57.038Z,1022.71
2018-12-15T13:25:06.728Z,1022.7
2018-12-15T13:26:16.435Z,1022.69
2018-12-15T13:27:26.117Z,1022.73
2018-12-15T13:28:35.834Z,1022.71
2018-12-15T13:29:45.533Z,1022.71
2018-12-15T13:30:55.481Z,1022.72
2018-12-15T13:32:05.193Z,1022.75
2018-12-15T13:33:14.890Z,1022.73
2018-12-15T13:34:24.830Z,1022.75
2018-12-15T13:35:34.540Z,1022.73
2018-12-15T13:36:44.491Z,1022.73
2018-12-15T13:37:54.174Z,1022.71
2018-12-15T13:39:04.123Z,1022.72
2018-12-15T13:40:14.074Z,1022.73
2018-12-15T13:41:24.017Z,1022.67
2018-12-15T13:42:33.956Z,1022.67
2018-12-15T13:43:43.655Z,1022.7
2018-12-15T13:44:53.622Z,1022.69
2018-12-15T13:46:03.570Z,1022.67
2018-12-15T13:47:13.520Z,1022.73
2018-12-15T13:48:22.954Z,1022.7
2018-12-15T13:49:32.387Z,1022.7
2018-12-15T13:50:42.079Z,1022.71
2018-12-15T13:51:52.025Z,1022.68
2018-12-15T13:53:01.972Z,1022.68
2018-12-15T13:54:11.931Z,1022.69
2018-12-15T13:55:21.633Z,1022.65
2018-12-15T13:56:31.570Z,1022.69
2018-12-15T13:57:41.267Z,1022.7
2018-12-15T13:58:51.210Z,1022.73
2018-12-15T14:00:00.889Z,1022.8
2018-12-15T14:01:10.839Z,1022.73
2018-12-15T14:02:20.790Z,1022.74
2018-12-15T14:03:30.232Z,1022.77
2018-12-15T14:04:39.928Z,1022.75
2018-12-15T14:05:49.861Z,1022.75
2018-12-15T14:06:59.804Z,1022.75
2018-12-15T14:08:09.785Z,1022.72